createdAt,value
2023-05-22T00:00:03.286Z,17.60
2023-05-22T00:01:02.929Z,17.60
2023-05-22T00:02:03.030Z,17.60
2023-05-22T00:03:02.752Z,17.50
2023-05-22T00:04:03.749Z,17.50
2023-05-22T00:05:03.624Z,17.50
2023-05-22T00:06:03.258Z,17.50
2023-05-22T00:07:03.016Z,17.50
2023-05-22T00:08:03.009Z,17.50
2023-05-22T00:09:02.739Z,17.50
2023-05-22T00:10:03.583Z,17.50
2023-05-22T00:11:03.540Z,17.40
2023-05-22T00:12:03.629Z,17.40
2023-05-22T00:13:03.322Z,17.40
2023-05-22T00:14:02.884Z,17.40
2023-05-22T00:15:02.983Z,17.40
2023-05-22T00:16:03.576Z,17.40
2023-05-22T00:17:03.180Z,17.40
2023-05-22T00:18:02.851Z,17.40
2023-05-22T00:19:03.460Z,17.40
2023-05-22T00:20:02.731Z,17.40
2023-05-22T00:21:02.617Z,17.30
2023-05-22T00:22:03.286Z,17.30
2023-05-22T00:23:02.892Z,17.30
2023-05-22T00:24:02.865Z,17.30
2023-05-22T00:25:02.931Z,17.30
2023-05-22T00:26:02.731Z,17.30
2023-05-22T00:27:03.248Z,17.30
2023-05-22T00:28:02.875Z,17.30
2023-05-22T00:29:03.447Z,17.30
2023-05-22T00:30:03.210Z,17.30
2023-05-22T00:31:02.848Z,17.30
2023-05-22T00:32:02.868Z,17.20
2023-05-22T00:33:03.366Z,17.20
2023-05-22T00:34:03.628Z,17.20
2023-05-22T00:35:03.319Z,17.20
2023-05-22T00:36:02.999Z,17.20
2023-05-22T00:37:03.606Z,17.20
2023-05-22T00:38:03.130Z,17.20
2023-05-22T00:39:02.603Z,17.20
2023-05-22T00:40:03.594Z,17.20
2023-05-22T00:41:03.245Z,17.10
2023-05-22T00:42:02.863Z,17.10
2023-05-22T00:43:03.532Z,17.10
2023-05-22T00:44:03.237Z,17.10
2023-05-22T00:45:03.315Z,17.10
2023-05-22T00:46:02.899Z,17.10
2023-05-22T00:47:03.579Z,17.10
2023-05-22T00:48:03.581Z,17.10
2023-05-22T00:49:03.190Z,17.10
2023-05-22T00:50:03.141Z,17.00
2023-05-22T00:51:02.711Z,17.00
2023-05-22T00:52:03.463Z,17.00
2023-05-22T00:53:03.051Z,17.00
2023-05-22T00:54:02.704Z,17.00
2023-05-22T00:55:03.367Z,17.00
2023-05-22T00:56:02.939Z,17.00
2023-05-22T00:57:02.671Z,17.00
2023-05-22T00:58:02.794Z,17.00
2023-05-22T00:59:02.777Z,17.00
2023-05-22T01:00:03.477Z,17.00
2023-05-22T01:01:03.472Z,16.90
2023-05-22T01:02:03.657Z,16.90
2023-05-22T01:03:03.427Z,16.90
2023-05-22T01:04:03.264Z,16.90
2023-05-22T01:05:02.846Z,16.90
2023-05-22T01:06:03.531Z,16.90
2023-05-22T01:07:03.136Z,16.80
2023-05-22T01:08:02.773Z,16.80
2023-05-22T01:09:02.623Z,16.80
2023-05-22T01:10:03.420Z,16.80
2023-05-22T01:11:02.922Z,16.70
2023-05-22T01:12:03.623Z,16.70
2023-05-22T01:13:03.086Z,16.70
2023-05-22T01:14:02.788Z,16.70
2023-05-22T01:15:03.565Z,16.70
2023-05-22T01:16:02.719Z,16.60
2023-05-22T01:17:03.068Z,16.60
2023-05-22T01:18:02.637Z,16.60
2023-05-22T01:19:03.392Z,16.60
2023-05-22T01:20:02.902Z,16.50
2023-05-22T01:21:03.536Z,16.50
2023-05-22T01:22:03.049Z,16.50
2023-05-22T01:23:02.656Z,16.50
2023-05-22T01:24:03.411Z,16.50
2023-05-22T01:25:03.134Z,16.40
2023-05-22T01:26:02.832Z,16.40
2023-05-22T01:27:02.825Z,16.40
2023-05-22T01:28:02.852Z,16.40
2023-05-22T01:29:03.455Z,16.40
2023-05-22T01:30:03.156Z,16.40
2023-05-22T01:31:02.829Z,16.30
2023-05-22T01:32:03.409Z,16.30
2023-05-22T01:33:03.125Z,16.30
2023-05-22T01:34:02.912Z,16.30
2023-05-22T01:35:03.626Z,16.30
2023-05-22T01:36:03.272Z,16.30
2023-05-22T01:37:02.927Z,16.30
2023-05-22T01:38:03.484Z,16.30
2023-05-22T01:39:03.205Z,16.30
2023-05-22T01:40:03.289Z,16.30
2023-05-22T01:41:03.540Z,16.20
2023-05-22T01:42:03.527Z,16.20
2023-05-22T01:43:03.042Z,16.20
2023-05-22T01:44:03.561Z,16.20
2023-05-22T01:45:03.211Z,16.20
2023-05-22T01:46:02.840Z,16.20
2023-05-22T01:47:02.715Z,16.20
2023-05-22T01:48:03.399Z,16.20
2023-05-22T01:49:03.052Z,16.20
2023-05-22T01:50:03.029Z,16.20
2023-05-22T01:51:02.997Z,16.20
2023-05-22T01:52:02.915Z,16.20
2023-05-22T01:53:03.590Z,16.10
2023-05-22T01:54:03.085Z,16.10
2023-05-22T01:55:03.293Z,16.10
2023-05-22T01:56:02.807Z,16.10
2023-05-22T01:57:02.950Z,16.10
2023-05-22T01:58:02.937Z,16.10
2023-05-22T01:59:03.536Z,16.10
2023-05-22T02:00:03.492Z,16.10
2023-05-22T02:01:03.080Z,16.10
2023-05-22T02:02:02.879Z,16.10
2023-05-22T02:03:03.012Z,16.10
2023-05-22T02:04:03.016Z,16.10
2023-05-22T02:05:02.714Z,16.10
2023-05-22T02:06:02.831Z,16.10
2023-05-22T02:07:03.387Z,16.10
2023-05-22T02:08:03.488Z,16.10
2023-05-22T02:09:03.174Z,16.10
2023-05-22T02:10:02.938Z,16.10
2023-05-22T02:11:03.555Z,16.10
2023-05-22T02:12:03.231Z,16.10
2023-05-22T02:13:02.849Z,16.10
2023-05-22T02:14:03.512Z,16.10
2023-05-22T02:15:03.455Z,16.10
2023-05-22T02:16:03.473Z,16.10
2023-05-22T02:17:02.718Z,16.10
2023-05-22T02:18:03.229Z,16.10
2023-05-22T02:19:03.038Z,16.10
2023-05-22T02:20:02.633Z,16.10
2023-05-22T02:21:03.336Z,16.10
2023-05-22T02:22:02.903Z,16.10
2023-05-22T02:23:03.030Z,16.10
2023-05-22T02:24:02.660Z,16.10
2023-05-22T02:25:02.762Z,16.10
2023-05-22T02:26:02.849Z,16.10
2023-05-22T02:27:03.341Z,16.10
2023-05-22T02:28:03.018Z,16.10
2023-05-22T02:29:02.978Z,16.10
2023-05-22T02:30:03.497Z,16.10
2023-05-22T02:31:02.635Z,16.10
2023-05-22T02:32:02.674Z,16.10
2023-05-22T02:33:03.312Z,16.10
2023-05-22T02:34:03.549Z,16.10
2023-05-22T02:35:02.793Z,16.10
2023-05-22T02:36:03.391Z,16.10
2023-05-22T02:37:02.970Z,16.10
2023-05-22T02:38:02.692Z,16.00
2023-05-22T02:39:02.668Z,16.00
2023-05-22T02:40:03.191Z,16.00
2023-05-22T02:41:02.760Z,16.00
2023-05-22T02:42:03.486Z,16.00
2023-05-22T02:43:03.073Z,16.00
2023-05-22T02:44:03.232Z,16.00
2023-05-22T02:45:03.155Z,16.00
2023-05-22T02:46:02.887Z,16.00
2023-05-22T02:47:03.603Z,16.00
2023-05-22T02:48:03.835Z,15.90
2023-05-22T02:49:03.300Z,15.90
2023-05-22T02:50:03.238Z,15.90
2023-05-22T02:51:02.827Z,15.90
2023-05-22T02:52:03.352Z,15.90
2023-05-22T02:53:02.830Z,15.90
2023-05-22T02:54:03.406Z,15.90
2023-05-22T02:55:02.964Z,15.90
2023-05-22T02:56:03.515Z,15.80
2023-05-22T02:57:03.153Z,15.80
2023-05-22T02:58:02.665Z,15.80
2023-05-22T02:59:02.622Z,15.80
2023-05-22T03:00:03.338Z,15.80
2023-05-22T03:01:02.881Z,15.80
2023-05-22T03:02:03.532Z,15.80
2023-05-22T03:03:03.293Z,15.80
2023-05-22T03:04:03.102Z,15.80
2023-05-22T03:05:02.756Z,15.70
2023-05-22T03:06:03.390Z,15.70
2023-05-22T03:07:03.271Z,15.70
2023-05-22T03:08:03.206Z,15.70
2023-05-22T03:09:03.235Z,15.70
2023-05-22T03:10:03.508Z,15.60
2023-05-22T03:11:03.012Z,15.60
2023-05-22T03:12:02.677Z,15.60
2023-05-22T03:13:03.265Z,15.60
2023-05-22T03:14:03.232Z,15.60
2023-05-22T03:15:03.399Z,15.60
2023-05-22T03:16:03.634Z,15.60
2023-05-22T03:17:02.888Z,15.50
2023-05-22T03:18:02.943Z,15.50
2023-05-22T03:19:02.813Z,15.50
2023-05-22T03:20:03.394Z,15.50
2023-05-22T03:21:03.109Z,15.50
2023-05-22T03:22:02.716Z,15.40
2023-05-22T03:23:02.859Z,15.40
2023-05-22T03:24:02.818Z,15.40
2023-05-22T03:25:03.545Z,15.40
2023-05-22T03:26:03.342Z,15.40
2023-05-22T03:27:02.953Z,15.40
2023-05-22T03:28:03.570Z,15.30
2023-05-22T03:29:02.776Z,15.30
2023-05-22T03:30:03.376Z,15.30
2023-05-22T03:31:03.460Z,15.30
2023-05-22T03:32:02.915Z,15.30
2023-05-22T03:33:03.479Z,15.30
2023-05-22T03:34:03.440Z,15.30
2023-05-22T03:35:03.292Z,15.30
2023-05-22T03:36:02.913Z,15.30
2023-05-22T03:37:03.628Z,15.40
2023-05-22T03:38:03.029Z,15.40
2023-05-22T03:39:03.561Z,15.40
2023-05-22T03:40:03.494Z,15.40
2023-05-22T03:41:03.460Z,15.40
2023-05-22T03:42:03.059Z,15.40
2023-05-22T03:43:03.561Z,15.40
2023-05-22T03:44:03.093Z,15.40
2023-05-22T03:45:02.740Z,15.40
2023-05-22T03:46:03.423Z,15.40
2023-05-22T03:47:03.107Z,15.40
2023-05-22T03:48:02.818Z,15.40
2023-05-22T03:49:03.454Z,15.40
2023-05-22T03:50:03.296Z,15.40
2023-05-22T03:51:03.297Z,15.40
2023-05-22T03:52:02.955Z,15.40
2023-05-22T03:53:02.697Z,15.40
2023-05-22T03:54:03.468Z,15.40
2023-05-22T03:55:03.055Z,15.40
2023-05-22T03:56:02.722Z,15.40
2023-05-22T03:57:02.801Z,15.50
2023-05-22T03:58:03.624Z,15.50
2023-05-22T03:59:03.404Z,15.50
2023-05-22T04:00:03.085Z,15.50
2023-05-22T04:01:02.794Z,15.60
2023-05-22T04:02:03.318Z,15.60
2023-05-22T04:03:03.695Z,15.70
2023-05-22T04:04:03.223Z,15.70
2023-05-22T04:05:02.892Z,15.80
2023-05-22T04:06:03.523Z,15.80
2023-05-22T04:07:03.702Z,15.90
2023-05-22T04:08:02.820Z,15.90
2023-05-22T04:09:03.331Z,16.00
2023-05-22T04:10:02.938Z,16.10
2023-05-22T04:11:03.614Z,16.10
2023-05-22T04:12:03.304Z,16.20
2023-05-22T04:13:03.368Z,16.30
2023-05-22T04:14:03.485Z,16.30
2023-05-22T04:15:03.057Z,16.40
2023-05-22T04:16:03.451Z,16.50
2023-05-22T04:17:03.220Z,16.60
2023-05-22T04:18:03.446Z,16.60
2023-05-22T04:19:03.039Z,16.70
2023-05-22T04:20:02.711Z,16.80
2023-05-22T04:21:02.737Z,16.90
2023-05-22T04:22:02.895Z,17.00
2023-05-22T04:23:03.414Z,17.00
2023-05-22T04:24:03.531Z,17.10
2023-05-22T04:25:03.319Z,17.10
2023-05-22T04:26:03.503Z,17.20
2023-05-22T04:27:03.193Z,17.20
2023-05-22T04:28:02.761Z,17.30
2023-05-22T04:29:03.303Z,17.30
2023-05-22T04:30:03.152Z,17.30
2023-05-22T04:31:03.153Z,17.40
2023-05-22T04:32:02.836Z,17.40
2023-05-22T04:33:03.330Z,17.40
2023-05-22T04:34:03.538Z,17.50
2023-05-22T04:35:03.172Z,17.50
2023-05-22T04:36:03.296Z,17.60
2023-05-22T04:37:02.889Z,17.70
2023-05-22T04:38:02.949Z,17.80
2023-05-22T04:39:03.613Z,18.00
2023-05-22T04:40:02.660Z,18.10
2023-05-22T04:41:03.389Z,18.20
2023-05-22T04:42:03.000Z,18.30
2023-05-22T04:43:03.667Z,18.40
2023-05-22T04:44:03.259Z,18.40
2023-05-22T04:45:02.885Z,18.50
2023-05-22T04:46:03.521Z,18.60
2023-05-22T04:47:04.772Z,18.70
2023-05-22T04:48:03.006Z,18.80
2023-05-22T04:49:03.575Z,18.90
2023-05-22T04:50:03.267Z,18.90
2023-05-22T04:51:03.422Z,19.00
2023-05-22T04:52:02.896Z,19.10
2023-05-22T04:53:03.525Z,19.30
2023-05-22T04:54:02.801Z,19.40
2023-05-22T04:55:04.567Z,19.50
2023-05-22T04:56:03.098Z,19.60
2023-05-22T04:57:03.262Z,19.70
2023-05-22T04:58:02.952Z,19.90
2023-05-22T04:59:03.316Z,20.00
2023-05-22T05:00:02.874Z,20.10
2023-05-22T05:01:03.379Z,20.30
2023-05-22T05:02:02.758Z,20.40
2023-05-22T05:03:02.758Z,20.50
2023-05-22T05:04:02.904Z,20.60
2023-05-22T05:05:03.578Z,20.80
2023-05-22T05:06:03.514Z,20.90
2023-05-22T05:07:03.158Z,21.00
2023-05-22T05:08:02.699Z,21.10
2023-05-22T05:09:03.524Z,21.20
2023-05-22T05:10:03.221Z,21.30
2023-05-22T05:11:03.388Z,21.30
2023-05-22T05:12:03.399Z,21.40
2023-05-22T05:13:03.072Z,21.50
2023-05-22T05:14:03.516Z,21.60
2023-05-22T05:15:03.252Z,21.60
2023-05-22T05:16:02.673Z,21.70
2023-05-22T05:17:03.500Z,21.70
2023-05-22T05:18:03.214Z,21.70
2023-05-22T05:19:03.444Z,21.70
2023-05-22T05:20:03.109Z,21.70
2023-05-22T05:21:02.940Z,21.70
2023-05-22T05:22:02.747Z,21.70
2023-05-22T05:23:02.704Z,21.60
2023-05-22T05:24:03.251Z,21.60
2023-05-22T05:25:02.944Z,21.60
2023-05-22T05:26:02.998Z,21.50
2023-05-22T05:27:03.015Z,21.50
2023-05-22T05:28:02.682Z,21.50
2023-05-22T05:29:03.506Z,21.40
2023-05-22T05:30:02.966Z,21.40
2023-05-22T05:31:02.675Z,21.40
2023-05-22T05:32:03.219Z,21.40
2023-05-22T05:33:02.901Z,21.30
2023-05-22T05:34:02.700Z,21.30
2023-05-22T05:35:03.212Z,21.30
2023-05-22T05:36:03.467Z,21.30
2023-05-22T05:37:03.110Z,21.20
2023-05-22T05:38:03.612Z,21.20
2023-05-22T05:39:03.256Z,21.10
2023-05-22T05:40:02.896Z,21.10
2023-05-22T05:41:03.418Z,21.10
2023-05-22T05:42:03.097Z,21.00
2023-05-22T05:43:02.682Z,21.00
2023-05-22T05:44:03.274Z,20.90
2023-05-22T05:45:03.295Z,20.90
2023-05-22T05:46:02.908Z,20.90
2023-05-22T05:47:03.548Z,20.80
2023-05-22T05:48:03.394Z,20.80
2023-05-22T05:49:03.200Z,20.80
2023-05-22T05:50:02.713Z,20.80
2023-05-22T05:51:03.384Z,20.80
2023-05-22T05:52:02.975Z,20.80
2023-05-22T05:53:02.923Z,20.80
2023-05-22T05:54:02.983Z,20.80
2023-05-22T05:55:03.592Z,20.80
2023-05-22T05:56:03.208Z,20.90
2023-05-22T05:57:03.612Z,21.00
2023-05-22T05:58:03.119Z,21.10
2023-05-22T05:59:02.875Z,21.10
2023-05-22T06:00:03.495Z,21.20
2023-05-22T06:01:03.180Z,21.30
2023-05-22T06:02:02.831Z,21.40
2023-05-22T06:03:03.301Z,21.50
2023-05-22T06:04:03.636Z,21.60
2023-05-22T06:05:03.511Z,21.70
2023-05-22T06:06:03.536Z,21.70
2023-05-22T06:07:02.901Z,21.80
2023-05-22T06:08:02.978Z,21.80
2023-05-22T06:09:02.772Z,21.90
2023-05-22T06:10:03.464Z,22.00
2023-05-22T06:11:03.006Z,22.10
2023-05-22T06:12:02.879Z,22.10
2023-05-22T06:13:02.962Z,22.20
2023-05-22T06:14:03.238Z,22.30
2023-05-22T06:15:02.965Z,22.40
2023-05-22T06:16:05.794Z,22.40
2023-05-22T06:17:03.033Z,22.50
2023-05-22T06:18:03.596Z,22.60
2023-05-22T06:19:03.501Z,22.70
2023-05-22T06:20:03.081Z,22.70
2023-05-22T06:21:02.733Z,22.80
2023-05-22T06:22:03.437Z,22.90
2023-05-22T06:23:02.903Z,22.90
2023-05-22T06:24:02.879Z,23.00
2023-05-22T06:25:02.971Z,23.10
2023-05-22T06:26:03.001Z,23.10
2023-05-22T06:27:02.626Z,23.20
2023-05-22T06:28:06.185Z,23.30
2023-05-22T06:29:03.027Z,23.40
2023-05-22T06:30:04.706Z,23.40
2023-05-22T06:31:03.109Z,23.50
2023-05-22T06:32:02.720Z,23.50
2023-05-22T06:33:03.111Z,23.60
2023-05-22T06:34:03.319Z,23.70
2023-05-22T06:35:03.240Z,23.70
2023-05-22T06:36:03.109Z,23.70
2023-05-22T06:37:02.780Z,23.80
2023-05-22T06:38:02.793Z,23.90
2023-05-22T06:39:03.520Z,23.90
2023-05-22T06:40:03.126Z,24.00
2023-05-22T06:41:03.059Z,24.10
2023-05-22T06:42:03.184Z,24.10
2023-05-22T06:43:02.910Z,24.20
2023-05-22T06:44:03.679Z,24.30
2023-05-22T06:45:02.917Z,24.30
2023-05-22T06:46:02.961Z,24.40
2023-05-22T06:47:03.021Z,24.40
2023-05-22T06:48:03.569Z,24.40
2023-05-22T06:49:03.140Z,24.50
2023-05-22T06:50:03.423Z,24.50
2023-05-22T06:51:03.473Z,24.60
2023-05-22T06:52:05.163Z,24.60
2023-05-22T06:53:03.584Z,24.70
2023-05-22T06:54:02.730Z,24.70
2023-05-22T06:55:03.309Z,24.80
2023-05-22T06:56:03.359Z,24.80
2023-05-22T06:57:02.850Z,24.90
2023-05-22T06:58:03.110Z,24.90
2023-05-22T06:59:04.829Z,25.00
2023-05-22T07:00:03.257Z,25.10
2023-05-22T07:01:03.368Z,25.10
2023-05-22T07:02:03.169Z,25.20
2023-05-22T07:03:02.686Z,25.20
2023-05-22T07:04:03.494Z,25.30
2023-05-22T07:05:03.482Z,25.30
2023-05-22T07:06:03.512Z,25.40
2023-05-22T07:07:02.782Z,25.40
2023-05-22T07:08:02.740Z,25.50
2023-05-22T07:09:03.419Z,25.60
2023-05-22T07:10:03.626Z,25.70
2023-05-22T07:11:03.214Z,25.70
2023-05-22T07:12:03.242Z,25.80
2023-05-22T07:13:02.866Z,25.80
2023-05-22T07:14:02.877Z,25.90
2023-05-22T07:15:02.901Z,25.90
2023-05-22T07:16:03.057Z,26.00
2023-05-22T07:17:03.413Z,26.00
2023-05-22T07:18:03.444Z,26.10
2023-05-22T07:19:03.558Z,26.10
2023-05-22T07:20:03.128Z,26.10
2023-05-22T07:21:03.014Z,26.20
2023-05-22T07:22:03.042Z,26.20
2023-05-22T07:23:03.607Z,26.30
2023-05-22T07:24:03.285Z,26.30
2023-05-22T07:25:03.340Z,26.30
2023-05-22T07:26:02.882Z,26.30
2023-05-22T07:27:03.489Z,26.30
2023-05-22T07:28:03.504Z,26.30
2023-05-22T07:29:03.083Z,26.40
2023-05-22T07:30:03.656Z,26.40
2023-05-22T07:31:02.633Z,26.40
2023-05-22T07:32:03.344Z,26.40
2023-05-22T07:33:03.250Z,26.40
2023-05-22T07:34:02.896Z,26.40
2023-05-22T07:35:03.628Z,26.40
2023-05-22T07:36:03.209Z,26.40
2023-05-22T07:37:02.822Z,26.40
2023-05-22T07:38:03.400Z,26.40
2023-05-22T07:39:02.877Z,26.50
2023-05-22T07:40:02.769Z,26.50
2023-05-22T07:41:03.233Z,26.50
2023-05-22T07:42:02.921Z,26.50
2023-05-22T07:43:03.510Z,26.50
2023-05-22T07:44:03.156Z,26.50
2023-05-22T07:45:02.761Z,26.50
2023-05-22T07:46:02.739Z,26.50
2023-05-22T07:47:03.442Z,26.50
2023-05-22T07:48:03.581Z,26.50
2023-05-22T07:49:03.493Z,26.50
2023-05-22T07:50:03.415Z,26.60
2023-05-22T07:51:02.936Z,26.60
2023-05-22T07:52:02.675Z,26.60
2023-05-22T07:53:02.640Z,26.60
2023-05-22T07:54:03.336Z,26.60
2023-05-22T07:55:03.112Z,26.60
2023-05-22T07:56:03.063Z,26.60
2023-05-22T07:57:03.697Z,26.60
2023-05-22T07:58:03.537Z,26.60
2023-05-22T07:59:03.332Z,26.60
2023-05-22T08:00:02.941Z,26.50
2023-05-22T08:01:03.538Z,26.50
2023-05-22T08:02:02.674Z,26.50
2023-05-22T08:03:03.481Z,26.50
2023-05-22T08:04:03.506Z,26.50
2023-05-22T08:05:03.549Z,26.50
2023-05-22T08:06:02.786Z,26.50
2023-05-22T08:07:03.577Z,26.40
2023-05-22T08:08:03.068Z,26.40
2023-05-22T08:09:03.110Z,26.30
2023-05-22T08:10:02.903Z,26.30
2023-05-22T08:11:04.372Z,26.30
2023-05-22T08:12:03.025Z,26.30
2023-05-22T08:13:03.364Z,26.20
2023-05-22T08:14:02.860Z,26.20
2023-05-22T08:15:03.115Z,26.10
2023-05-22T08:16:03.595Z,26.10
2023-05-22T08:17:03.224Z,26.00
2023-05-22T08:18:02.719Z,25.90
2023-05-22T08:19:03.445Z,25.90
2023-05-22T08:20:03.492Z,25.80
2023-05-22T08:21:03.335Z,25.80
2023-05-22T08:22:02.987Z,25.80
2023-05-22T08:23:03.341Z,25.70
2023-05-22T08:24:02.918Z,25.70
2023-05-22T08:25:02.909Z,25.70
2023-05-22T08:26:03.524Z,25.70
2023-05-22T08:27:03.134Z,25.60
2023-05-22T08:28:02.928Z,25.60
2023-05-22T08:29:03.538Z,25.60
2023-05-22T08:30:03.047Z,25.60
2023-05-22T08:31:03.222Z,25.60
2023-05-22T08:32:03.134Z,25.60
2023-05-22T08:33:03.385Z,25.60
2023-05-22T08:34:03.224Z,25.60
2023-05-22T08:35:03.130Z,25.60
2023-05-22T08:36:02.842Z,25.60
2023-05-22T08:37:03.383Z,25.60
2023-05-22T08:38:03.114Z,25.60
2023-05-22T08:39:02.903Z,25.60
2023-05-22T08:40:03.089Z,25.60
2023-05-22T08:41:02.836Z,25.60
2023-05-22T08:42:03.496Z,25.60
2023-05-22T08:43:03.084Z,25.60
2023-05-22T08:44:02.880Z,25.60
2023-05-22T08:45:03.458Z,25.60
2023-05-22T08:46:02.982Z,25.60
2023-05-22T08:47:03.208Z,25.50
2023-05-22T08:48:02.949Z,25.60
2023-05-22T08:49:02.625Z,25.60
2023-05-22T08:50:02.774Z,25.60
2023-05-22T08:51:02.866Z,25.60
2023-05-22T08:52:02.684Z,25.50
2023-05-22T08:53:03.203Z,25.50
2023-05-22T08:54:02.964Z,25.50
2023-05-22T08:55:02.664Z,25.50
2023-05-22T08:56:03.194Z,25.50
2023-05-22T08:57:02.971Z,25.50
2023-05-22T08:58:03.550Z,25.50
2023-05-22T08:59:03.105Z,25.50
2023-05-22T09:00:02.728Z,25.50
2023-05-22T09:01:02.752Z,25.50
2023-05-22T09:02:04.414Z,25.50
2023-05-22T09:03:02.833Z,25.50
2023-05-22T09:04:03.554Z,25.60
2023-05-22T09:05:03.225Z,25.60
2023-05-22T09:06:03.310Z,25.60
2023-05-22T09:07:03.253Z,25.60
2023-05-22T09:08:12.407Z,25.60
2023-05-22T09:09:03.024Z,25.60
2023-05-22T09:10:02.762Z,25.60
2023-05-22T09:11:03.278Z,25.60
2023-05-22T09:12:02.981Z,25.70
2023-05-22T09:13:03.126Z,25.70
2023-05-22T09:14:02.780Z,25.70
2023-05-22T09:15:03.234Z,25.80
2023-05-22T09:16:02.866Z,25.80
2023-05-22T09:17:03.572Z,25.80
2023-05-22T09:18:03.347Z,25.90
2023-05-22T09:19:03.121Z,25.90
2023-05-22T09:20:02.887Z,26.00
2023-05-22T09:21:03.676Z,26.00
2023-05-22T09:22:03.636Z,26.00
2023-05-22T09:23:03.052Z,26.10
2023-05-22T09:24:02.737Z,26.10
2023-05-22T09:25:03.401Z,26.10
2023-05-22T09:26:02.896Z,26.20
2023-05-22T09:27:03.510Z,26.20
2023-05-22T09:28:03.109Z,26.20
2023-05-22T09:29:03.704Z,26.20
2023-05-22T09:30:03.317Z,26.20
2023-05-22T09:31:04.236Z,26.20
2023-05-22T09:32:02.764Z,26.20
2023-05-22T09:33:03.467Z,26.20
2023-05-22T09:34:03.599Z,26.10
2023-05-22T09:35:03.247Z,26.10
2023-05-22T09:36:03.235Z,26.10
2023-05-22T09:37:02.664Z,26.10
2023-05-22T09:38:03.351Z,26.10
2023-05-22T09:39:02.945Z,26.10
2023-05-22T09:40:02.708Z,26.10
2023-05-22T09:41:02.888Z,26.10
2023-05-22T09:42:02.837Z,26.20
2023-05-22T09:43:02.886Z,26.20
2023-05-22T09:44:03.398Z,26.20
2023-05-22T09:45:02.931Z,26.20
2023-05-22T09:46:03.488Z,26.30
2023-05-22T09:47:03.491Z,26.30
2023-05-22T09:48:03.141Z,26.30
2023-05-22T09:49:02.715Z,26.30
2023-05-22T09:50:02.809Z,26.30
2023-05-22T09:51:02.864Z,26.30
2023-05-22T09:52:03.468Z,26.30
2023-05-22T09:53:03.105Z,26.30
2023-05-22T09:54:03.216Z,26.30
2023-05-22T09:55:03.355Z,26.30
2023-05-22T09:56:03.288Z,26.30
2023-05-22T09:57:03.043Z,26.30
2023-05-22T09:58:02.899Z,26.40
2023-05-22T09:59:03.517Z,26.40
2023-05-22T10:00:03.370Z,26.40
2023-05-22T10:01:03.454Z,26.40
2023-05-22T10:02:02.914Z,26.50
2023-05-22T10:03:02.728Z,26.50
2023-05-22T10:04:03.517Z,26.50
2023-05-22T10:05:02.738Z,26.50
2023-05-22T10:06:02.827Z,26.50
2023-05-22T10:07:03.455Z,26.50
2023-05-22T10:08:02.958Z,26.50
2023-05-22T10:09:03.513Z,26.60
2023-05-22T10:10:02.711Z,26.60
2023-05-22T10:11:03.222Z,26.60
2023-05-22T10:12:03.153Z,26.60
2023-05-22T10:13:03.228Z,26.60
2023-05-22T10:14:02.770Z,26.60
2023-05-22T10:15:03.309Z,26.60
2023-05-22T10:16:03.447Z,26.60
2023-05-22T10:17:03.060Z,26.60
2023-05-22T10:18:02.647Z,26.60
2023-05-22T10:19:03.525Z,26.60
2023-05-22T10:20:03.342Z,26.60
2023-05-22T10:21:02.825Z,26.70
2023-05-22T10:22:03.463Z,26.70
2023-05-22T10:23:02.925Z,26.70
2023-05-22T10:24:02.990Z,26.70
2023-05-22T10:25:02.759Z,26.80
2023-05-22T10:26:03.496Z,26.80
2023-05-22T10:27:03.464Z,26.80
2023-05-22T10:28:03.234Z,26.80
2023-05-22T10:29:02.849Z,26.80
2023-05-22T10:30:03.446Z,26.90
2023-05-22T10:31:03.029Z,26.90
2023-05-22T10:32:02.718Z,26.90
2023-05-22T10:33:03.411Z,26.90
2023-05-22T10:34:03.170Z,26.90
2023-05-22T10:35:02.990Z,26.90
2023-05-22T10:36:03.577Z,26.90
2023-05-22T10:37:16.367Z,26.90
2023-05-22T10:38:02.720Z,26.90
2023-05-22T10:39:03.327Z,26.90
2023-05-22T10:40:03.085Z,26.90
2023-05-22T10:41:02.672Z,26.90
2023-05-22T10:42:03.304Z,26.90
2023-05-22T10:43:02.910Z,27.00
2023-05-22T10:44:02.876Z,27.00
2023-05-22T10:45:02.880Z,27.00
2023-05-22T10:46:03.616Z,27.00
2023-05-22T10:47:03.552Z,27.10
2023-05-22T10:48:03.663Z,27.10
2023-05-22T10:49:03.488Z,27.10
2023-05-22T10:50:03.239Z,27.20
2023-05-22T10:51:03.268Z,27.20
2023-05-22T10:52:02.832Z,27.30
2023-05-22T10:53:03.557Z,27.30
2023-05-22T10:54:03.070Z,27.30
2023-05-22T10:55:02.714Z,27.30
2023-05-22T10:56:03.507Z,27.30
2023-05-22T10:57:03.082Z,27.30
2023-05-22T10:58:04.902Z,27.30
2023-05-22T10:59:03.198Z,27.30
2023-05-22T11:00:02.945Z,27.30
2023-05-22T11:01:03.547Z,27.30
2023-05-22T11:02:03.125Z,27.30
2023-05-22T11:03:09.899Z,27.40
2023-05-22T11:04:03.657Z,27.40
2023-05-22T11:05:03.292Z,27.40
2023-05-22T11:06:03.521Z,27.50
2023-05-22T11:07:03.055Z,27.50
2023-05-22T11:08:02.787Z,27.50
2023-05-22T11:09:02.767Z,27.50
2023-05-22T11:10:03.450Z,27.50
2023-05-22T11:11:03.416Z,27.50
2023-05-22T11:12:03.551Z,27.50
2023-05-22T11:13:03.118Z,27.60
2023-05-22T11:14:02.928Z,27.60
2023-05-22T11:15:03.637Z,27.60
2023-05-22T11:16:03.299Z,27.60
2023-05-22T11:17:03.018Z,27.60
2023-05-22T11:18:03.264Z,27.60
2023-05-22T11:19:14.640Z,27.60
2023-05-22T11:20:03.193Z,27.60
2023-05-22T11:21:02.860Z,27.70
2023-05-22T11:22:02.929Z,27.60
2023-05-22T11:23:02.723Z,27.70
2023-05-22T11:24:03.305Z,27.70
2023-05-22T11:25:03.158Z,27.70
2023-05-22T11:26:02.808Z,27.70
2023-05-22T11:27:02.798Z,27.70
2023-05-22T11:28:03.494Z,27.70
2023-05-22T11:29:03.194Z,27.80
2023-05-22T11:30:03.353Z,27.80
2023-05-22T11:31:03.390Z,27.90
2023-05-22T11:32:03.093Z,27.90
2023-05-22T11:33:02.918Z,27.90
2023-05-22T11:34:03.103Z,27.90
2023-05-22T11:35:02.836Z,27.90
2023-05-22T11:36:03.384Z,27.90
2023-05-22T11:37:03.502Z,28.00
2023-05-22T11:38:02.993Z,28.00
2023-05-22T11:39:02.979Z,27.90
2023-05-22T11:40:03.434Z,27.90
2023-05-22T11:41:03.206Z,27.90
2023-05-22T11:42:03.226Z,27.90
2023-05-22T11:43:02.826Z,27.90
2023-05-22T11:44:02.834Z,27.90
2023-05-22T11:45:03.399Z,27.90
2023-05-22T11:46:03.020Z,27.90
2023-05-22T11:47:03.602Z,27.90
2023-05-22T11:48:03.609Z,27.80
2023-05-22T11:49:02.882Z,27.90
2023-05-22T11:50:03.431Z,27.90
2023-05-22T11:51:02.969Z,27.90
2023-05-22T11:52:02.654Z,27.90
2023-05-22T11:53:03.400Z,28.00
2023-05-22T11:54:02.951Z,28.00
2023-05-22T11:55:03.521Z,28.00
2023-05-22T11:56:03.646Z,28.00
2023-05-22T11:57:03.319Z,28.10
2023-05-22T11:58:02.872Z,28.10
2023-05-22T11:59:02.661Z,28.10
2023-05-22T12:00:03.332Z,28.20
2023-05-22T12:01:02.689Z,28.20
2023-05-22T12:02:03.237Z,28.20
2023-05-22T12:03:02.862Z,28.20
2023-05-22T12:04:02.737Z,28.20
2023-05-22T12:05:03.043Z,28.20
2023-05-22T12:06:02.767Z,28.20
2023-05-22T12:07:02.710Z,28.20
2023-05-22T12:08:03.484Z,28.30
2023-05-22T12:09:03.071Z,28.30
2023-05-22T12:10:02.838Z,28.30
2023-05-22T12:11:02.835Z,28.20
2023-05-22T12:12:03.581Z,28.20
2023-05-22T12:13:02.740Z,28.20
2023-05-22T12:14:03.246Z,28.20
2023-05-22T12:15:02.843Z,28.30
2023-05-22T12:16:02.870Z,28.30
2023-05-22T12:17:03.153Z,28.40
2023-05-22T12:18:03.340Z,28.40
2023-05-22T12:19:03.495Z,28.40
2023-05-22T12:20:02.634Z,28.50
2023-05-22T12:21:02.665Z,28.50
2023-05-22T12:22:03.315Z,28.50
2023-05-22T12:23:02.965Z,28.50
2023-05-22T12:24:02.897Z,28.50
2023-05-22T12:25:02.980Z,28.50
2023-05-22T12:26:03.395Z,28.50
2023-05-22T12:27:03.410Z,28.50
2023-05-22T12:28:02.920Z,28.60
2023-05-22T12:29:03.708Z,28.60
2023-05-22T12:30:03.146Z,28.50
2023-05-22T12:31:03.352Z,28.50
2023-05-22T12:32:03.494Z,28.50
2023-05-22T12:33:03.293Z,28.50
2023-05-22T12:34:02.950Z,28.50
2023-05-22T12:35:02.672Z,28.40
2023-05-22T12:36:03.235Z,28.30
2023-05-22T12:37:02.766Z,28.30
2023-05-22T12:38:03.361Z,28.20
2023-05-22T12:39:03.024Z,28.10
2023-05-22T12:40:03.606Z,28.10
2023-05-22T12:41:03.569Z,28.10
2023-05-22T12:42:03.498Z,28.10
2023-05-22T12:43:03.506Z,28.00
2023-05-22T12:44:03.080Z,28.00
2023-05-22T12:45:02.731Z,28.00
2023-05-22T12:46:03.060Z,28.00
2023-05-22T12:47:03.448Z,28.00
2023-05-22T12:48:03.040Z,28.00
2023-05-22T12:49:03.294Z,28.10
2023-05-22T12:50:03.014Z,28.10
2023-05-22T12:51:03.476Z,28.10
2023-05-22T12:52:03.209Z,28.10